createdAt,value
2022-09-03T00:01:38.198Z,83.20
2022-09-03T00:04:12.976Z,82.60
2022-09-03T00:06:47.052Z,83.10
2022-09-03T00:09:22.652Z,82.80
2022-09-03T00:11:59.729Z,83.40
2022-09-03T00:14:35.386Z,83.10
2022-09-03T00:17:10.770Z,82.60
2022-09-03T00:19:45.569Z,84.30
2022-09-03T00:22:22.721Z,83.70
2022-09-03T00:24:52.884Z,83.70
2022-09-03T00:27:23.563Z,82.90
2022-09-03T00:29:55.711Z,83.00
2022-09-03T00:32:30.932Z,84.20
2022-09-03T00:35:04.171Z,85.60
2022-09-03T00:37:38.117Z,86.10
2022-09-03T00:40:18.091Z,85.60
2022-09-03T00:42:52.209Z,85.20
2022-09-03T00:45:33.918Z,85.10
2022-09-03T00:48:17.497Z,85.90
2022-09-03T00:51:00.716Z,86.70
2022-09-03T00:53:38.940Z,87.40
2022-09-03T00:56:19.120Z,85.90
2022-09-03T00:59:02.917Z,87.20
2022-09-03T01:01:39.319Z,88.70
2022-09-03T01:04:21.863Z,90.00
2022-09-03T01:06:59.892Z,90.30
2022-09-03T01:09:43.495Z,87.10
2022-09-03T01:12:20.164Z,88.70
2022-09-03T01:14:58.442Z,88.80
2022-09-03T01:17:38.114Z,90.80
2022-09-03T01:20:20.381Z,90.40
2022-09-03T01:23:15.045Z,90.30
2022-09-03T01:25:54.497Z,89.80
2022-09-03T01:28:40.490Z,90.20
2022-09-03T01:31:21.216Z,90.20
2022-09-03T01:33:53.906Z,90.70
2022-09-03T01:36:31.980Z,88.20
2022-09-03T01:39:03.598Z,90.30
2022-09-03T01:42:03.211Z,90.90
2022-09-03T01:44:44.723Z,91.20
2022-09-03T01:47:23.819Z,92.40
2022-09-03T01:49:59.839Z,92.70
2022-09-03T01:52:40.829Z,92.90
2022-09-03T01:55:22.183Z,92.10
2022-09-03T01:57:56.414Z,91.70
2022-09-03T02:00:28.915Z,93.00
2022-09-03T02:02:57.854Z,93.30
2022-09-03T02:05:29.217Z,92.40
2022-09-03T02:08:00.397Z,92.20
2022-09-03T02:10:33.670Z,91.80
2022-09-03T02:13:08.703Z,92.30
2022-09-03T02:15:42.717Z,93.80
2022-09-03T02:18:17.937Z,92.70
2022-09-03T02:20:48.849Z,94.20
2022-09-03T02:23:18.084Z,93.90
2022-09-03T02:25:56.924Z,94.00
2022-09-03T02:28:27.224Z,94.40
2022-09-03T02:30:58.005Z,94.30
2022-09-03T02:33:27.487Z,95.00
2022-09-03T02:35:56.908Z,93.70
2022-09-03T02:38:27.653Z,93.50
2022-09-03T02:40:56.012Z,93.80
2022-09-03T02:43:31.201Z,94.10
2022-09-03T02:46:05.198Z,93.70
2022-09-03T02:48:34.049Z,93.80
2022-09-03T02:51:02.572Z,94.90
2022-09-03T02:53:43.358Z,95.20
2022-09-03T02:56:12.533Z,94.70
2022-09-03T02:58:41.380Z,94.30
2022-09-03T03:01:12.813Z,95.60
2022-09-03T03:03:52.864Z,95.00
2022-09-03T03:06:22.587Z,95.10
2022-09-03T03:08:51.686Z,95.40
2022-09-03T03:11:21.980Z,95.00
2022-09-03T03:13:50.408Z,95.30
2022-09-03T03:16:20.458Z,94.20
2022-09-03T03:18:48.789Z,95.90
2022-09-03T03:21:18.779Z,96.10
2022-09-03T03:23:47.209Z,96.50
2022-09-03T03:26:18.575Z,95.20
2022-09-03T03:28:49.210Z,95.80
2022-09-03T03:31:21.184Z,96.60
2022-09-03T03:33:53.522Z,95.60
2022-09-03T03:36:23.168Z,96.50
2022-09-03T03:38:55.642Z,96.40
2022-09-03T03:41:25.918Z,96.80
2022-09-03T03:43:55.812Z,97.00
2022-09-03T03:46:26.763Z,96.10
2022-09-03T03:48:55.725Z,96.30
2022-09-03T03:51:24.466Z,96.00
2022-09-03T03:53:56.773Z,96.30
2022-09-03T03:56:26.210Z,97.40
2022-09-03T03:58:56.061Z,96.00
2022-09-03T04:01:28.105Z,96.50
2022-09-03T04:03:56.918Z,98.30
2022-09-03T04:06:25.986Z,98.00
2022-09-03T04:08:54.500Z,98.70
2022-09-03T04:11:25.188Z,99.20
2022-09-03T04:13:54.111Z,98.80
2022-09-03T04:16:26.296Z,98.20
2022-09-03T04:18:56.114Z,98.40
2022-09-03T04:21:27.611Z,97.60
2022-09-03T04:23:58.254Z,98.20
2022-09-03T04:26:30.024Z,99.50
2022-09-03T04:28:58.557Z,98.90
2022-09-03T04:31:28.418Z,99.00
2022-09-03T04:33:57.295Z,99.70
2022-09-03T04:36:28.273Z,99.90
2022-09-03T04:38:59.499Z,99.90
2022-09-03T04:41:30.045Z,99.90
2022-09-03T04:43:59.442Z,99.90
2022-09-03T04:46:33.313Z,99.90
2022-09-03T04:49:03.400Z,98.80
2022-09-03T04:51:32.471Z,99.90
2022-09-03T04:54:03.089Z,99.90
2022-09-03T04:56:33.007Z,99.90
2022-09-03T04:59:03.097Z,99.90
2022-09-03T05:01:34.915Z,99.90
2022-09-03T05:04:04.875Z,99.90
2022-09-03T05:06:35.000Z,99.80
2022-09-03T05:09:03.592Z,99.90
2022-09-03T05:11:32.556Z,99.60
2022-09-03T05:14:02.052Z,99.90
2022-09-03T05:16:32.150Z,99.90
2022-09-03T05:19:01.708Z,99.90
2022-09-03T05:21:30.854Z,99.90
2022-09-03T05:24:01.373Z,99.90
2022-09-03T05:26:32.024Z,99.90
2022-09-03T05:29:02.016Z,99.90
2022-09-03T05:31:32.996Z,99.90
2022-09-03T05:34:04.841Z,99.90
2022-09-03T05:36:35.678Z,99.90
2022-09-03T05:39:05.381Z,99.90
2022-09-03T05:41:34.178Z,99.90
2022-09-03T05:44:03.989Z,99.90
2022-09-03T05:46:37.699Z,99.90
2022-09-03T05:49:07.613Z,99.90
2022-09-03T05:51:39.652Z,99.90
2022-09-03T05:54:08.747Z,99.90
2022-09-03T05:56:40.344Z,99.90
2022-09-03T05:59:10.781Z,99.90
2022-09-03T06:01:41.675Z,99.90
2022-09-03T06:04:17.880Z,99.90
2022-09-03T06:06:48.260Z,99.90
2022-09-03T06:09:18.775Z,99.90
2022-09-03T06:11:49.436Z,99.90
2022-09-03T06:14:19.257Z,99.90
2022-09-03T06:16:52.835Z,99.90
2022-09-03T06:19:21.597Z,99.90
2022-09-03T06:21:50.561Z,99.90
2022-09-03T06:24:26.463Z,99.90
2022-09-03T06:26:57.366Z,99.90
2022-09-03T06:29:27.183Z,99.90
2022-09-03T06:31:57.261Z,99.90
2022-09-03T06:34:27.516Z,99.90
2022-09-03T06:36:55.945Z,99.90
2022-09-03T06:39:25.803Z,99.90
2022-09-03T06:41:55.104Z,99.90
2022-09-03T06:44:35.147Z,99.90
2022-09-03T06:47:05.016Z,99.90
2022-09-03T06:49:33.720Z,99.90
2022-09-03T06:52:02.036Z,99.90
2022-09-03T06:54:30.627Z,99.90
2022-09-03T06:56:59.874Z,99.90
2022-09-03T06:59:28.321Z,99.90
2022-09-03T07:01:59.005Z,99.90
2022-09-03T07:04:29.155Z,99.90
2022-09-03T07:06:58.109Z,99.90
2022-09-03T07:09:27.053Z,99.90
2022-09-03T07:11:56.436Z,99.90
2022-09-03T07:14:24.667Z,99.90
2022-09-03T07:16:53.576Z,99.90
2022-09-03T07:19:21.894Z,99.90
2022-09-03T07:21:52.096Z,99.90
2022-09-03T07:24:22.358Z,99.90
2022-09-03T07:26:51.771Z,99.90
2022-09-03T07:29:21.570Z,99.90
2022-09-03T07:31:53.134Z,99.90
2022-09-03T07:34:24.298Z,99.90
2022-09-03T07:36:55.880Z,99.90
2022-09-03T07:39:24.348Z,99.90
2022-09-03T07:41:53.834Z,99.90
2022-09-03T07:44:24.649Z,99.90
2022-09-03T07:46:53.010Z,99.90
2022-09-03T07:49:22.641Z,99.90
2022-09-03T07:51:54.333Z,99.90
2022-09-03T07:54:27.545Z,99.90
2022-09-03T07:56:56.994Z,99.90
2022-09-03T07:59:26.698Z,99.90
2022-09-03T08:01:55.360Z,99.90
2022-09-03T08:04:24.117Z,99.90
2022-09-03T08:06:55.660Z,99.90
2022-09-03T08:09:26.265Z,99.90
2022-09-03T08:11:54.760Z,99.90
2022-09-03T08:14:23.720Z,99.90
2022-09-03T08:16:52.335Z,99.90
2022-09-03T08:19:22.806Z,99.90
2022-09-03T08:21:51.226Z,99.90
2022-09-03T08:24:21.403Z,99.90
2022-09-03T08:26:52.561Z,99.90
2022-09-03T08:29:22.582Z,99.90
2022-09-03T08:31:51.358Z,99.90
2022-09-03T08:34:20.986Z,99.90
2022-09-03T08:36:50.311Z,99.90
2022-09-03T08:39:19.813Z,99.90
2022-09-03T08:42:21.595Z,99.90
2022-09-03T08:44:56.408Z,99.90
2022-09-03T08:47:28.713Z,99.90
2022-09-03T08:50:02.793Z,99.90
2022-09-03T08:52:39.393Z,99.90
2022-09-03T08:55:19.098Z,99.90
2022-09-03T08:57:49.884Z,99.90
2022-09-03T09:00:21.185Z,99.90
2022-09-03T09:02:59.420Z,99.90
2022-09-03T09:05:38.300Z,99.90
2022-09-03T09:08:17.056Z,99.90
2022-09-03T09:10:48.391Z,99.90
2022-09-03T09:13:29.644Z,99.90
2022-09-03T09:16:11.895Z,99.90
2022-09-03T09:18:53.628Z,99.90
2022-09-03T09:21:28.987Z,99.90
2022-09-03T09:24:02.905Z,99.90
2022-09-03T09:26:33.336Z,99.90
2022-09-03T09:29:06.735Z,99.90
2022-09-03T09:31:45.377Z,99.90
2022-09-03T09:34:14.010Z,99.90
2022-09-03T09:36:49.891Z,99.90
2022-09-03T09:39:19.286Z,99.90
2022-09-03T09:41:58.960Z,99.90
2022-09-03T09:44:28.076Z,99.90
2022-09-03T09:47:07.877Z,99.90
2022-09-03T09:49:39.600Z,99.90
2022-09-03T09:52:12.267Z,99.90
2022-09-03T09:54:42.588Z,99.90
2022-09-03T09:57:18.455Z,99.90
2022-09-03T09:59:48.078Z,99.90
2022-09-03T10:02:27.949Z,99.90
2022-09-03T10:04:59.508Z,99.90
2022-09-03T10:07:32.433Z,99.90
2022-09-03T10:10:03.197Z,99.90
2022-09-03T10:12:42.327Z,99.90
2022-09-03T10:15:22.879Z,99.90
2022-09-03T10:18:01.672Z,99.90
2022-09-03T10:20:37.990Z,99.90
2022-09-03T10:23:16.585Z,99.90
2022-09-03T10:25:56.337Z,99.90
2022-09-03T10:28:28.707Z,99.90
2022-09-03T10:31:37.911Z,99.90
2022-09-03T10:34:15.504Z,98.10
2022-09-03T10:36:55.074Z,98.30
2022-09-03T10:39:31.273Z,98.00
2022-09-03T10:42:29.430Z,98.50
2022-09-03T10:45:04.229Z,97.50
2022-09-03T10:47:45.406Z,95.70
2022-09-03T10:50:23.531Z,95.50
2022-09-03T10:53:08.513Z,94.60
2022-09-03T10:55:48.680Z,94.90
2022-09-03T10:58:45.325Z,95.30
2022-09-03T11:01:25.515Z,94.40
2022-09-03T11:04:08.428Z,94.00
2022-09-03T11:06:46.065Z,93.40
2022-09-03T11:09:20.208Z,92.70
2022-09-03T11:11:54.448Z,92.00
2022-09-03T11:14:32.376Z,91.80
2022-09-03T11:17:07.442Z,92.40
2022-09-03T11:19:41.647Z,91.70
2022-09-03T11:22:13.515Z,92.80
2022-09-03T11:24:51.878Z,92.70
2022-09-03T11:27:31.757Z,92.30
2022-09-03T11:30:07.147Z,91.90
2022-09-03T11:32:52.968Z,92.00
2022-09-03T11:35:30.800Z,91.80
2022-09-03T11:38:03.268Z,91.60
2022-09-03T11:40:35.668Z,90.70
2022-09-03T11:43:13.284Z,90.80
2022-09-03T11:45:42.127Z,90.70
2022-09-03T11:48:34.721Z,89.30
2022-09-03T11:51:03.398Z,89.60
2022-09-03T11:53:37.769Z,86.70
2022-09-03T11:56:19.945Z,86.70
2022-09-03T11:59:05.096Z,87.20
2022-09-03T12:01:36.255Z,86.00
2022-09-03T12:04:07.764Z,83.80
2022-09-03T12:07:02.964Z,84.90
2022-09-03T12:10:04.576Z,82.40
2022-09-03T12:12:54.061Z,81.80
2022-09-03T12:15:45.264Z,82.10
2022-09-03T12:18:21.339Z,81.10
2022-09-03T12:21:02.717Z,80.60
2022-09-03T12:23:33.641Z,78.80
2022-09-03T12:26:07.575Z,78.90
2022-09-03T12:28:38.204Z,72.70
2022-09-03T12:31:21.083Z,72.70
2022-09-03T12:33:54.827Z,71.50
2022-09-03T12:36:23.889Z,72.30
2022-09-03T12:39:11.811Z,73.00
2022-09-03T12:42:04.036Z,70.50
2022-09-03T12:44:34.278Z,69.70
2022-09-03T12:50:08.114Z,70.20
2022-09-03T12:52:39.672Z,69.00
2022-09-03T12:55:21.825Z,69.00
2022-09-03T12:57:57.837Z,68.40
2022-09-03T13:00:33.893Z,67.90
2022-09-03T13:03:07.264Z,66.10
2022-09-03T13:05:42.279Z,69.50
2022-09-03T13:08:16.455Z,69.90
2022-09-03T13:10:45.958Z,69.30
2022-09-03T13:13:24.559Z,65.80
2022-09-03T13:16:27.890Z,62.30
2022-09-03T13:19:05.960Z,64.20
2022-09-03T13:21:47.475Z,64.70
2022-09-03T13:24:30.352Z,63.10
2022-09-03T13:27:08.409Z,59.00
2022-09-03T13:29:55.138Z,60.40
2022-09-03T13:32:34.631Z,58.40
2022-09-03T13:35:12.052Z,58.30
2022-09-03T13:37:44.884Z,57.20
2022-09-03T13:40:19.562Z,57.50
2022-09-03T13:42:55.222Z,58.90
2022-09-03T13:45:36.727Z,60.30
2022-09-03T13:48:30.602Z,63.10
2022-09-03T13:51:05.981Z,63.40
2022-09-03T13:53:44.136Z,62.50
2022-09-03T13:56:24.123Z,63.20
2022-09-03T13:58:57.676Z,64.70
2022-09-03T14:01:41.229Z,66.90
2022-09-03T14:04:23.007Z,67.80
2022-09-03T14:07:01.929Z,68.70
2022-09-03T14:09:40.428Z,70.70
2022-09-03T14:12:17.368Z,70.60
2022-09-03T14:14:55.681Z,71.90
2022-09-03T14:17:36.866Z,73.80
2022-09-03T14:20:11.405Z,74.70
2022-09-03T14:22:51.023Z,76.00
2022-09-03T14:25:21.716Z,79.10
2022-09-03T14:27:51.039Z,82.50
2022-09-03T14:30:28.861Z,86.50
2022-09-03T14:33:09.043Z,90.00
2022-09-03T14:35:51.928Z,92.80
2022-09-03T14:38:33.956Z,98.50
2022-09-03T14:41:07.874Z,99.90
2022-09-03T14:43:57.713Z,99.90
2022-09-03T14:46:44.900Z,99.90
2022-09-03T14:49:33.785Z,99.90
2022-09-03T14:52:15.636Z,99.90
2022-09-03T14:55:11.705Z,99.90
2022-09-03T14:58:03.923Z,99.90
2022-09-03T15:00:37.229Z,99.90
2022-09-03T15:03:36.756Z,99.90
2022-09-03T15:06:18.190Z,99.90
2022-09-03T15:08:57.557Z,99.90
2022-09-03T15:11:32.772Z,99.90
2022-09-03T15:14:11.281Z,99.90
2022-09-03T15:16:52.317Z,99.90
2022-09-03T15:19:40.820Z,99.90
2022-09-03T15:22:20.373Z,99.90
2022-09-03T15:24:55.516Z,99.90
2022-09-03T15:27:51.673Z,99.90
2022-09-03T15:30:21.374Z,99.90
2022-09-03T15:33:09.578Z,99.90
2022-09-03T15:35:56.768Z,99.90
2022-09-03T15:38:41.555Z,99.90
2022-09-03T15:41:22.475Z,99.90
2022-09-03T15:43:52.604Z,99.90
2022-09-03T15:46:39.440Z,99.90
2022-09-03T15:49:13.275Z,99.90
2022-09-03T15:51:59.672Z,99.90
2022-09-03T15:54:43.237Z,99.90
2022-09-03T15:57:17.742Z,99.90
2022-09-03T15:59:52.808Z,99.90
2022-09-03T16:02:26.434Z,99.90
2022-09-03T16:05:07.372Z,99.90
2022-09-03T16:07:58.556Z,99.90
2022-09-03T16:10:44.191Z,99.90
2022-09-03T16:13:45.664Z,99.90
2022-09-03T16:16:19.045Z,99.90
2022-09-03T16:18:57.851Z,99.90
2022-09-03T16:21:33.547Z,99.90
2022-09-03T16:24:06.420Z,99.90
2022-09-03T16:26:42.412Z,99.90
2022-09-03T16:29:13.940Z,99.90
2022-09-03T16:31:57.390Z,99.90
2022-09-03T16:34:36.127Z,99.90
2022-09-03T16:37:23.777Z,99.90
2022-09-03T16:40:01.777Z,99.90
2022-09-03T16:42:42.817Z,99.90
2022-09-03T16:45:27.290Z,99.90
2022-09-03T16:48:10.179Z,99.90
2022-09-03T16:50:53.780Z,99.90
2022-09-03T16:53:31.406Z,99.90
2022-09-03T16:56:12.279Z,99.90
2022-09-03T16:58:53.101Z,99.90
2022-09-03T17:01:41.064Z,99.90
2022-09-03T17:04:30.891Z,99.90
2022-09-03T17:07:13.795Z,99.90
2022-09-03T17:09:59.743Z,99.90
2022-09-03T17:12:37.743Z,99.90
2022-09-03T17:15:27.975Z,99.90
2022-09-03T17:18:31.066Z,99.90
2022-09-03T17:21:11.365Z,99.90
2022-09-03T17:24:19.230Z,99.90
2022-09-03T17:27:01.177Z,99.90
2022-09-03T17:30:00.892Z,99.90
2022-09-03T17:32:47.802Z,99.90
2022-09-03T17:35:21.101Z,99.90
2022-09-03T17:37:59.101Z,99.90
2022-09-03T17:40:37.170Z,99.90
2022-09-03T17:43:15.714Z,99.90
2022-09-03T17:45:53.025Z,99.90
2022-09-03T17:48:52.499Z,99.90
2022-09-03T17:51:37.313Z,99.90
2022-09-03T17:54:10.349Z,99.90
2022-09-03T17:56:47.886Z,99.90
2022-09-03T17:59:25.859Z,99.90
2022-09-03T18:02:01.548Z,99.90
2022-09-03T18:04:45.308Z,99.90
2022-09-03T18:07:23.653Z,99.90
2022-09-03T18:10:03.037Z,99.90
2022-09-03T18:12:43.196Z,99.90
2022-09-03T18:15:29.290Z,99.90
2022-09-03T18:18:02.682Z,99.90
2022-09-03T18:21:21.485Z,99.90
2022-09-03T18:24:17.545Z,99.90
2022-09-03T18:27:09.489Z,99.90
2022-09-03T18:30:04.657Z,99.90
2022-09-03T18:32:50.606Z,99.90
2022-09-03T18:35:39.587Z,99.90
2022-09-03T18:38:27.343Z,99.90
2022-09-03T18:41:23.414Z,99.90
2022-09-03T18:44:16.436Z,99.90
2022-09-03T18:50:24.141Z,99.90
2022-09-03T18:53:16.649Z,99.90
2022-09-03T18:56:20.464Z,99.90
2022-09-03T18:59:27.504Z,99.90
2022-09-03T19:02:14.627Z,99.90
2022-09-03T19:05:13.831Z,99.90
2022-09-03T19:08:07.777Z,99.90
2022-09-03T19:11:02.314Z,99.90
2022-09-03T19:13:53.728Z,99.90
2022-09-03T19:16:50.252Z,99.90
2022-09-03T19:19:59.117Z,99.90
2022-09-03T19:22:52.153Z,99.90
2022-09-03T19:25:39.264Z,99.90
2022-09-03T19:28:36.017Z,99.90
2022-09-03T19:31:40.419Z,99.90
2022-09-03T19:34:38.461Z,99.90
2022-09-03T19:37:31.599Z,99.90
2022-09-03T19:40:29.530Z,99.90
2022-09-03T19:43:26.547Z,99.90
2022-09-03T19:46:22.923Z,99.90
2022-09-03T19:49:25.562Z,99.90
2022-09-03T19:52:20.570Z,99.90
2022-09-03T19:55:11.196Z,99.90
2022-09-03T19:57:58.286Z,99.90
2022-09-03T20:00:45.598Z,99.90
2022-09-03T20:03:33.613Z,99.90
2022-09-03T20:06:23.883Z,99.90
2022-09-03T20:09:10.934Z,99.90
2022-09-03T20:11:41.641Z,99.90
2022-09-03T20:14:14.697Z,99.90
2022-09-03T20:17:06.175Z,99.90
2022-09-03T20:19:46.388Z,99.90
2022-09-03T20:22:23.062Z,99.90
2022-09-03T20:25:05.349Z,99.90
2022-09-03T20:27:51.922Z,99.90
2022-09-03T20:30:22.341Z,99.90
2022-09-03T20:33:01.113Z,99.90
2022-09-03T20:35:40.746Z,99.90
2022-09-03T20:38:26.003Z,99.90
2022-09-03T20:41:06.874Z,99.90
2022-09-03T20:43:51.179Z,99.90
2022-09-03T20:46:33.618Z,99.90
2022-09-03T20:49:09.626Z,99.90
2022-09-03T20:51:43.479Z,99.90
2022-09-03T20:54:22.100Z,99.90
2022-09-03T20:57:09.135Z,99.90
2022-09-03T20:59:52.660Z,99.90
2022-09-03T21:02:30.872Z,99.90
2022-09-03T21:05:10.406Z,99.90
2022-09-03T21:07:51.893Z,99.90
2022-09-03T21:10:29.969Z,99.90
2022-09-03T21:13:09.562Z,99.90
2022-09-03T21:15:48.603Z,99.90
2022-09-03T21:18:30.149Z,99.90
2022-09-03T21:21:10.794Z,99.90
2022-09-03T21:23:44.175Z,99.90
2022-09-03T21:26:21.430Z,99.90
2022-09-03T21:29:00.663Z,99.90
2022-09-03T21:31:38.609Z,99.90
2022-09-03T21:34:12.651Z,99.90
2022-09-03T21:36:44.319Z,99.90
2022-09-03T21:39:20.703Z,99.90
2022-09-03T21:41:56.613Z,99.90
2022-09-03T21:44:38.161Z,99.90
2022-09-03T21:47:10.669Z,99.90
2022-09-03T21:49:46.610Z,99.90
2022-09-03T21:52:20.324Z,99.90
2022-09-03T21:54:48.840Z,99.90
2022-09-03T21:57:24.155Z,99.90
2022-09-03T22:00:11.688Z,99.90
2022-09-03T22:02:43.131Z,99.90
2022-09-03T22:05:11.988Z,99.90
2022-09-03T22:07:53.650Z,99.90
2022-09-03T22:10:27.827Z,99.90
2022-09-03T22:13:14.609Z,99.90
2022-09-03T22:15:50.191Z,99.90
2022-09-03T22:18:28.633Z,99.90
2022-09-03T22:21:13.430Z,99.90
2022-09-03T22:23:55.419Z,99.90
2022-09-03T22:26:38.240Z,99.90
2022-09-03T22:29:20.005Z,99.90
2022-09-03T22:31:58.344Z,99.90
2022-09-03T22:34:54.306Z,99.90
2022-09-03T22:37:34.029Z,99.90
2022-09-03T22:40:11.977Z,99.90
2022-09-03T22:43:01.458Z,99.90
2022-09-03T22:45:49.673Z,99.90
2022-09-03T22:48:28.780Z,99.90
2022-09-03T22:50:59.062Z,99.90
2022-09-03T22:53:46.015Z,99.90
2022-09-03T22:56:20.829Z,99.90
2022-09-03T22:58:56.010Z,99.90
2022-09-03T23:01:30.563Z,99.90
2022-09-03T23:04:08.248Z,99.90
2022-09-03T23:06:42.543Z,99.90
2022-09-03T23:09:18.731Z,99.90
2022-09-03T23:11:52.360Z,99.90
2022-09-03T23:14:25.496Z,99.90
2022-09-03T23:17:00.216Z,99.90
2022-09-03T23:19:41.182Z,99.90
2022-09-03T23:22:13.394Z,99.90
2022-09-03T23:24:47.931Z,99.90
2022-09-03T23:27:21.458Z,99.90
2022-09-03T23:29:54.041Z,99.90
2022-09-03T23:32:28.291Z,99.90
2022-09-03T23:35:05.036Z,99.90
2022-09-03T23:37:46.950Z,99.90
2022-09-03T23:40:42.772Z,99.90
2022-09-03T23:43:26.598Z,99.90
2022-09-03T23:46:04.553Z,99.90
2022-09-03T23:48:49.007Z,99.90
2022-09-03T23:51:24.861Z,99.90
2022-09-03T23:54:04.483Z,99.90
2022-09-03T23:57:03.468Z,99.90
2022-09-03T23:59:42.812Z,99.90
